createdAt,value
2019-03-06T00:00:46.803Z,99.90
2019-03-06T00:03:17.187Z,99.90
2019-03-06T00:05:46.260Z,99.90
2019-03-06T00:08:15.184Z,99.90
2019-03-06T00:10:44.207Z,99.90
2019-03-06T00:13:13.291Z,99.90
2019-03-06T00:15:42.414Z,99.90
2019-03-06T00:18:11.421Z,99.90
2019-03-06T00:20:40.328Z,99.90
2019-03-06T00:23:09.263Z,99.90
2019-03-06T00:25:38.244Z,99.90
2019-03-06T00:28:07.296Z,99.90
2019-03-06T00:30:36.343Z,99.90
2019-03-06T00:33:05.293Z,99.90
2019-03-06T00:35:37.127Z,99.90
2019-03-06T00:38:06.134Z,99.90
2019-03-06T00:40:40.686Z,99.90
2019-03-06T00:43:09.675Z,99.90
2019-03-06T00:45:38.752Z,99.90
2019-03-06T00:48:07.725Z,99.90
2019-03-06T00:50:36.705Z,99.90
2019-03-06T00:53:05.592Z,99.90
2019-03-06T00:55:34.544Z,99.90
2019-03-06T00:58:03.464Z,99.90
2019-03-06T01:00:32.942Z,99.90
2019-03-06T01:03:01.883Z,99.90
2019-03-06T01:05:30.894Z,99.90
2019-03-06T01:07:59.974Z,99.90
2019-03-06T01:10:29.416Z,99.90
2019-03-06T01:12:58.316Z,99.90
2019-03-06T01:15:27.344Z,99.90
2019-03-06T01:17:56.194Z,99.90
2019-03-06T01:20:25.307Z,99.90
2019-03-06T01:22:54.369Z,99.90
2019-03-06T01:25:23.525Z,99.90
2019-03-06T01:27:52.483Z,99.90
2019-03-06T01:30:21.565Z,99.90
2019-03-06T01:32:53.868Z,99.90
2019-03-06T01:35:40.352Z,99.90
2019-03-06T01:38:27.078Z,99.90
2019-03-06T01:41:04.092Z,99.90
2019-03-06T01:43:41.027Z,99.90
2019-03-06T01:46:09.996Z,99.90
2019-03-06T01:48:38.924Z,99.90
2019-03-06T01:51:07.954Z,99.90
2019-03-06T01:53:36.945Z,99.90
2019-03-06T01:56:05.917Z,99.90
2019-03-06T01:58:34.913Z,99.90
2019-03-06T02:01:03.957Z,99.90
2019-03-06T02:03:32.955Z,99.90
2019-03-06T02:06:01.832Z,99.90
2019-03-06T02:08:31.019Z,99.90
2019-03-06T02:11:00.129Z,99.90
2019-03-06T02:13:29.217Z,99.90
2019-03-06T02:15:58.272Z,99.90
2019-03-06T02:18:27.260Z,99.90
2019-03-06T02:20:56.522Z,99.90
2019-03-06T02:23:25.548Z,99.90
2019-03-06T02:25:54.491Z,99.90
2019-03-06T02:28:23.416Z,99.90
2019-03-06T02:30:52.349Z,99.90
2019-03-06T02:33:21.468Z,99.90
2019-03-06T02:35:50.344Z,99.90
2019-03-06T02:38:19.204Z,99.90
2019-03-06T02:40:48.227Z,99.90
2019-03-06T02:43:17.102Z,99.90
2019-03-06T02:45:46.088Z,99.90
2019-03-06T02:48:15.053Z,99.90
2019-03-06T02:50:44.089Z,99.90
2019-03-06T02:53:12.983Z,99.90
2019-03-06T02:55:41.874Z,99.90
2019-03-06T02:58:35.595Z,99.90
2019-03-06T03:01:29.350Z,99.90
2019-03-06T03:04:12.879Z,99.90
2019-03-06T03:06:48.215Z,99.90
2019-03-06T03:09:18.455Z,99.90
2019-03-06T03:11:47.540Z,99.90
2019-03-06T03:14:16.645Z,99.90
2019-03-06T03:16:45.724Z,99.90
2019-03-06T03:19:14.742Z,99.90
2019-03-06T03:21:43.802Z,99.90
2019-03-06T03:24:13.586Z,99.90
2019-03-06T03:26:42.553Z,99.90
2019-03-06T03:29:11.607Z,99.90
2019-03-06T03:31:40.520Z,99.90
2019-03-06T03:34:09.475Z,99.90
2019-03-06T03:36:38.478Z,99.90
2019-03-06T03:39:08.300Z,99.90
2019-03-06T03:41:37.200Z,99.90
2019-03-06T03:44:06.172Z,99.90
2019-03-06T03:46:35.165Z,99.90
2019-03-06T03:49:04.047Z,99.90
2019-03-06T03:51:33.317Z,99.90
2019-03-06T03:54:02.288Z,99.90
2019-03-06T03:56:31.264Z,99.90
2019-03-06T03:59:00.295Z,99.90
2019-03-06T04:01:29.267Z,99.90
2019-03-06T04:03:58.237Z,99.90
2019-03-06T04:06:27.215Z,99.90
2019-03-06T04:08:56.110Z,99.90
2019-03-06T04:11:25.125Z,99.90
2019-03-06T04:13:54.077Z,99.90
2019-03-06T04:16:22.946Z,99.90
2019-03-06T04:18:51.981Z,99.90
2019-03-06T04:21:20.848Z,99.90
2019-03-06T04:23:49.762Z,99.90
2019-03-06T04:26:18.687Z,99.90
2019-03-06T04:28:47.655Z,99.90
2019-03-06T04:31:16.765Z,99.90
2019-03-06T04:33:45.692Z,99.90
2019-03-06T04:36:14.662Z,99.90
2019-03-06T04:38:43.936Z,99.90
2019-03-06T04:41:12.961Z,99.90
2019-03-06T04:43:42.035Z,99.90
2019-03-06T04:46:10.992Z,99.90
2019-03-06T04:48:39.886Z,99.90
2019-03-06T04:51:08.891Z,99.90
2019-03-06T04:53:37.875Z,99.90
2019-03-06T04:56:07.186Z,99.90
2019-03-06T04:58:36.104Z,99.90
2019-03-06T05:01:05.065Z,99.90
2019-03-06T05:03:34.039Z,99.90
2019-03-06T05:06:02.976Z,99.90
2019-03-06T05:08:32.227Z,99.90
2019-03-06T05:11:01.133Z,99.90
2019-03-06T05:13:30.068Z,99.90
2019-03-06T05:15:59.021Z,99.90
2019-03-06T05:18:32.676Z,99.90
2019-03-06T05:21:01.630Z,99.90
2019-03-06T05:23:30.563Z,99.90
2019-03-06T05:25:59.516Z,99.90
2019-03-06T05:28:28.521Z,99.90
2019-03-06T05:30:57.544Z,99.90
2019-03-06T05:33:28.656Z,99.90
2019-03-06T05:36:29.678Z,99.90
2019-03-06T05:39:09.826Z,99.90
2019-03-06T05:41:38.989Z,99.90
2019-03-06T05:44:07.817Z,99.90
2019-03-06T05:46:36.837Z,99.90
2019-03-06T05:49:05.900Z,99.90
2019-03-06T05:51:34.862Z,99.90
2019-03-06T05:54:03.732Z,99.90
2019-03-06T05:56:32.761Z,99.90
2019-03-06T05:59:01.752Z,99.90
2019-03-06T06:01:33.028Z,99.90
2019-03-06T06:04:02.272Z,99.90
2019-03-06T06:06:31.274Z,99.90
2019-03-06T06:09:00.316Z,99.90
2019-03-06T06:11:29.359Z,99.90
2019-03-06T06:13:59.377Z,99.90
2019-03-06T06:16:28.332Z,99.90
2019-03-06T06:18:57.351Z,99.90
2019-03-06T06:21:45.313Z,99.90
2019-03-06T06:24:17.372Z,99.90
2019-03-06T06:26:46.264Z,99.90
2019-03-06T06:29:15.133Z,99.90
2019-03-06T06:31:44.508Z,99.90
2019-03-06T06:34:13.490Z,99.90
2019-03-06T06:36:42.503Z,99.90
2019-03-06T06:39:11.569Z,99.90
2019-03-06T06:41:40.467Z,99.90
2019-03-06T06:44:09.435Z,99.90
2019-03-06T06:46:38.398Z,99.90
2019-03-06T06:49:07.386Z,99.90
2019-03-06T06:52:14.756Z,99.90
2019-03-06T06:54:51.509Z,99.90
2019-03-06T06:57:56.336Z,99.90
2019-03-06T07:01:24.790Z,99.90
2019-03-06T07:04:44.484Z,99.90
2019-03-06T07:07:31.187Z,99.90
2019-03-06T07:10:25.167Z,99.90
2019-03-06T07:13:09.517Z,99.90
2019-03-06T07:15:56.162Z,99.90
2019-03-06T07:18:30.541Z,99.90
2019-03-06T07:21:15.631Z,99.90
2019-03-06T07:23:53.651Z,99.90
2019-03-06T07:26:47.545Z,99.90
2019-03-06T07:29:38.623Z,99.90
2019-03-06T07:32:25.261Z,99.90
2019-03-06T07:35:52.187Z,99.90
2019-03-06T07:38:21.465Z,99.90
2019-03-06T07:41:03.765Z,99.90
2019-03-06T07:43:50.461Z,99.90
2019-03-06T07:46:41.648Z,99.90
2019-03-06T07:49:24.622Z,99.90
2019-03-06T07:52:24.918Z,99.90
2019-03-06T07:55:15.712Z,99.90
2019-03-06T07:58:20.355Z,99.90
2019-03-06T08:00:49.592Z,99.90
2019-03-06T08:03:53.117Z,99.90
2019-03-06T08:06:22.164Z,99.90
2019-03-06T08:08:51.164Z,99.90
2019-03-06T08:11:27.409Z,99.90
2019-03-06T08:14:21.880Z,99.90
2019-03-06T08:16:52.215Z,99.90
2019-03-06T08:19:55.347Z,99.90
2019-03-06T08:22:43.450Z,99.90
2019-03-06T08:25:34.897Z,99.90
2019-03-06T08:28:03.954Z,99.90
2019-03-06T08:30:36.549Z,99.90
2019-03-06T08:33:05.594Z,99.90
2019-03-06T08:35:34.584Z,99.90
2019-03-06T08:38:03.620Z,99.90
2019-03-06T08:40:32.654Z,99.90
2019-03-06T08:43:01.643Z,99.90
2019-03-06T08:45:36.620Z,99.90
2019-03-06T08:48:16.330Z,99.90
2019-03-06T08:50:56.961Z,99.90
2019-03-06T08:53:47.675Z,99.90
2019-03-06T08:56:41.476Z,99.90
2019-03-06T08:59:47.826Z,99.90
2019-03-06T09:02:30.459Z,99.90
2019-03-06T09:05:18.788Z,99.90
2019-03-06T09:08:19.809Z,99.90
2019-03-06T09:11:13.635Z,99.90
2019-03-06T09:14:07.812Z,99.90
2019-03-06T09:16:55.007Z,99.90
2019-03-06T09:19:41.636Z,99.90
2019-03-06T09:22:20.018Z,99.90
2019-03-06T09:25:10.826Z,99.90
2019-03-06T09:28:04.356Z,99.90
2019-03-06T09:30:38.488Z,99.90
2019-03-06T09:33:11.834Z,99.90
2019-03-06T09:35:52.811Z,99.90
2019-03-06T09:38:39.671Z,99.90
2019-03-06T09:41:23.565Z,99.90
2019-03-06T09:44:10.111Z,99.90
2019-03-06T09:47:07.423Z,99.90
2019-03-06T09:49:55.531Z,98.40
2019-03-06T09:52:52.768Z,97.90
2019-03-06T09:55:49.968Z,98.40
2019-03-06T09:58:40.856Z,97.50
2019-03-06T10:01:28.874Z,97.40
2019-03-06T10:04:25.707Z,97.70
2019-03-06T10:07:17.040Z,97.00
2019-03-06T10:10:04.997Z,96.60
2019-03-06T10:12:53.153Z,95.90
2019-03-06T10:15:29.505Z,96.70
2019-03-06T10:18:05.110Z,97.50
2019-03-06T10:20:34.440Z,96.00
2019-03-06T10:23:03.457Z,96.40
2019-03-06T10:25:32.488Z,96.00
2019-03-06T10:28:06.238Z,96.10
2019-03-06T10:30:32.442Z,96.70
2019-03-06T10:33:01.463Z,96.40
2019-03-06T10:35:31.474Z,96.00
2019-03-06T10:38:01.075Z,95.90
2019-03-06T10:40:30.323Z,96.20
2019-03-06T10:42:59.658Z,95.80
2019-03-06T10:45:28.835Z,95.80
2019-03-06T10:47:57.988Z,95.30
2019-03-06T10:50:29.787Z,96.00
2019-03-06T10:52:57.718Z,96.00
2019-03-06T10:55:26.817Z,96.10
2019-03-06T10:57:56.090Z,96.70
2019-03-06T11:00:28.428Z,96.50
2019-03-06T11:02:57.776Z,96.90
2019-03-06T11:05:28.406Z,97.40
2019-03-06T11:07:57.607Z,96.10
2019-03-06T11:10:26.653Z,96.90
2019-03-06T11:12:58.486Z,96.80
2019-03-06T11:15:27.632Z,96.80
2019-03-06T11:17:56.737Z,96.30
2019-03-06T11:20:28.342Z,96.90
2019-03-06T11:22:57.823Z,96.80
2019-03-06T11:25:27.430Z,97.50
2019-03-06T11:27:56.402Z,97.40
2019-03-06T11:30:37.404Z,97.70
2019-03-06T11:33:07.152Z,97.70
2019-03-06T11:35:38.103Z,96.90
2019-03-06T11:38:07.280Z,98.00
2019-03-06T11:40:36.489Z,98.30
2019-03-06T11:43:05.905Z,98.50
2019-03-06T11:45:34.909Z,98.70
2019-03-06T11:48:03.797Z,98.20
2019-03-06T11:50:40.625Z,98.10
2019-03-06T11:53:03.468Z,98.50
2019-03-06T11:55:32.497Z,98.50
2019-03-06T11:58:01.441Z,98.40
2019-03-06T12:00:35.860Z,98.50
2019-03-06T12:03:05.229Z,97.90
2019-03-06T12:05:34.700Z,98.40
2019-03-06T12:08:05.675Z,97.60
2019-03-06T12:10:34.733Z,97.60
2019-03-06T12:13:03.771Z,97.60
2019-03-06T12:15:32.598Z,96.10
2019-03-06T12:18:01.780Z,94.70
2019-03-06T12:20:30.867Z,95.00
2019-03-06T12:23:01.993Z,94.60
2019-03-06T12:25:31.083Z,94.70
2019-03-06T12:28:00.214Z,94.60
2019-03-06T12:30:29.193Z,95.00
2019-03-06T12:32:58.416Z,94.60
2019-03-06T12:35:27.544Z,93.80
2019-03-06T12:37:56.478Z,94.40
2019-03-06T12:40:25.570Z,94.70
2019-03-06T12:42:54.594Z,94.70
2019-03-06T12:45:23.747Z,94.60
2019-03-06T12:47:55.607Z,95.20
2019-03-06T12:50:24.624Z,95.10
2019-03-06T12:52:53.723Z,95.00
2019-03-06T12:55:22.617Z,95.00
2019-03-06T12:57:59.143Z,94.00
2019-03-06T13:00:23.298Z,93.40
2019-03-06T13:02:52.662Z,93.00
2019-03-06T13:05:21.862Z,92.70
2019-03-06T13:07:50.813Z,92.70
2019-03-06T13:10:21.772Z,92.40
2019-03-06T13:12:51.307Z,92.50
2019-03-06T13:15:22.915Z,92.00
2019-03-06T13:17:52.299Z,90.60
2019-03-06T13:20:21.397Z,90.10
2019-03-06T13:22:51.160Z,90.10
2019-03-06T13:25:20.503Z,90.80
2019-03-06T13:27:54.809Z,90.90
2019-03-06T13:30:21.356Z,90.30
2019-03-06T13:33:08.281Z,91.00
2019-03-06T13:35:37.687Z,89.80
2019-03-06T13:38:06.832Z,87.40
2019-03-06T13:40:35.865Z,87.80
2019-03-06T13:43:05.185Z,87.80
2019-03-06T13:45:34.348Z,89.20
2019-03-06T13:48:03.530Z,89.30
2019-03-06T13:50:35.814Z,89.00
2019-03-06T13:53:05.097Z,89.40
2019-03-06T13:55:34.365Z,88.20
2019-03-06T13:58:03.621Z,88.70
2019-03-06T14:00:32.742Z,89.20
2019-03-06T14:03:01.707Z,88.60
2019-03-06T14:05:30.620Z,88.90
2019-03-06T14:07:59.791Z,90.10
2019-03-06T14:10:28.924Z,89.60
2019-03-06T14:12:57.874Z,89.70
2019-03-06T14:15:27.042Z,90.00
2019-03-06T14:17:56.272Z,90.50
2019-03-06T14:20:25.643Z,90.40
2019-03-06T14:22:54.698Z,90.70
2019-03-06T14:25:24.188Z,90.20
2019-03-06T14:27:53.179Z,90.50
2019-03-06T14:30:22.493Z,90.60
2019-03-06T14:32:51.724Z,90.90
2019-03-06T14:35:20.872Z,90.60
2019-03-06T14:37:49.897Z,91.00
2019-03-06T14:40:26.061Z,91.20
2019-03-06T14:42:55.223Z,91.50
2019-03-06T14:45:24.344Z,91.10
2019-03-06T14:47:53.247Z,92.00
2019-03-06T14:50:22.413Z,91.80
2019-03-06T14:52:51.483Z,91.60
2019-03-06T14:55:20.771Z,91.80
2019-03-06T14:57:49.865Z,92.10
2019-03-06T15:00:18.899Z,92.00
2019-03-06T15:02:47.945Z,91.70
2019-03-06T15:05:17.659Z,92.10
2019-03-06T15:07:46.675Z,91.60
2019-03-06T15:10:15.669Z,91.80
2019-03-06T15:12:44.627Z,91.80
2019-03-06T15:15:14.542Z,92.30
2019-03-06T15:17:43.671Z,93.00
2019-03-06T15:20:15.028Z,92.70
2019-03-06T15:22:44.237Z,92.70
2019-03-06T15:25:15.509Z,93.30
2019-03-06T15:27:44.537Z,93.90
2019-03-06T15:30:14.624Z,93.90
2019-03-06T15:32:43.690Z,94.60
2019-03-06T15:35:12.875Z,95.10
2019-03-06T15:37:42.107Z,95.60
2019-03-06T15:40:17.162Z,96.60
2019-03-06T15:42:46.155Z,96.80
2019-03-06T15:45:16.118Z,97.50
2019-03-06T15:47:45.213Z,97.60
2019-03-06T15:50:14.608Z,97.90
2019-03-06T15:52:43.725Z,98.60
2019-03-06T15:55:12.982Z,99.10
2019-03-06T15:57:42.025Z,99.70
2019-03-06T16:00:23.023Z,99.90
2019-03-06T16:02:52.022Z,99.90
2019-03-06T16:05:21.089Z,99.90
2019-03-06T16:07:50.240Z,99.90
2019-03-06T16:10:19.402Z,99.90
2019-03-06T16:12:48.381Z,99.90
2019-03-06T16:15:17.603Z,99.90
2019-03-06T16:17:46.660Z,99.90
2019-03-06T16:20:16.921Z,99.90
2019-03-06T16:22:46.118Z,99.90
2019-03-06T16:25:15.166Z,99.90
2019-03-06T16:27:44.125Z,99.90
2019-03-06T16:30:14.632Z,99.90
2019-03-06T16:32:44.328Z,99.90
2019-03-06T16:35:13.509Z,99.90
2019-03-06T16:37:42.699Z,99.90
2019-03-06T16:40:13.744Z,99.90
2019-03-06T16:42:42.670Z,99.90
2019-03-06T16:45:13.911Z,99.90
2019-03-06T16:47:42.936Z,99.90
2019-03-06T16:50:15.907Z,99.90
2019-03-06T16:52:43.746Z,99.90
2019-03-06T16:55:13.897Z,99.90
2019-03-06T16:57:43.166Z,99.90
2019-03-06T17:00:31.141Z,99.90
2019-03-06T17:03:02.121Z,99.90
2019-03-06T17:05:31.098Z,99.90
2019-03-06T17:08:00.166Z,99.90
2019-03-06T17:10:29.233Z,99.90
2019-03-06T17:12:58.304Z,99.90
2019-03-06T17:15:28.111Z,99.90
2019-03-06T17:17:57.228Z,99.90
2019-03-06T17:20:27.243Z,99.90
2019-03-06T17:22:56.228Z,99.90
2019-03-06T17:25:28.083Z,99.90
2019-03-06T17:27:57.033Z,99.90
2019-03-06T17:30:26.427Z,99.90
2019-03-06T17:32:57.247Z,99.90
2019-03-06T17:35:26.476Z,99.90
2019-03-06T17:37:55.536Z,99.90
2019-03-06T17:40:24.586Z,99.90
2019-03-06T17:42:53.695Z,99.90
2019-03-06T17:45:22.809Z,99.90
2019-03-06T17:47:51.905Z,99.90
2019-03-06T17:50:21.017Z,99.90
2019-03-06T17:52:50.178Z,99.90
2019-03-06T17:55:19.228Z,99.90
2019-03-06T17:57:48.398Z,99.90
2019-03-06T18:00:18.418Z,99.90
2019-03-06T18:02:47.494Z,99.90
2019-03-06T18:05:16.542Z,99.90
2019-03-06T18:07:45.564Z,99.90
2019-03-06T18:10:16.381Z,99.90
2019-03-06T18:12:45.508Z,99.90
2019-03-06T18:15:14.435Z,99.90
2019-03-06T18:17:43.851Z,99.90
2019-03-06T18:20:13.865Z,99.90
2019-03-06T18:22:42.899Z,99.90
2019-03-06T18:25:13.915Z,99.90
2019-03-06T18:27:42.931Z,99.90
2019-03-06T18:30:14.064Z,99.90
2019-03-06T18:32:43.393Z,99.90
2019-03-06T18:35:13.001Z,99.90
2019-03-06T18:37:42.081Z,99.90
2019-03-06T18:40:13.253Z,99.90
2019-03-06T18:42:42.341Z,99.90
2019-03-06T18:45:12.841Z,99.90
2019-03-06T18:47:42.201Z,99.90
2019-03-06T18:50:12.521Z,99.90
2019-03-06T18:52:41.449Z,99.90
2019-03-06T18:55:10.675Z,99.90
2019-03-06T18:57:39.785Z,99.90
2019-03-06T19:00:12.448Z,99.90
2019-03-06T19:02:41.452Z,99.90
2019-03-06T19:05:10.762Z,99.90
2019-03-06T19:07:39.876Z,99.90
2019-03-06T19:10:10.009Z,99.90
2019-03-06T19:12:39.152Z,99.90
2019-03-06T19:15:10.327Z,99.90
2019-03-06T19:17:39.618Z,99.90
2019-03-06T19:20:08.896Z,99.90
2019-03-06T19:22:38.099Z,99.90
2019-03-06T19:25:07.264Z,99.90
2019-03-06T19:27:36.338Z,99.90
2019-03-06T19:30:14.907Z,99.90
2019-03-06T19:32:43.912Z,99.90
2019-03-06T19:35:12.943Z,99.90
2019-03-06T19:37:42.153Z,99.90
2019-03-06T19:40:11.302Z,99.90
2019-03-06T19:42:40.473Z,99.90
2019-03-06T19:45:10.870Z,99.90
2019-03-06T19:47:40.233Z,99.90
2019-03-06T19:50:11.871Z,99.90
2019-03-06T19:52:40.907Z,99.90
2019-03-06T19:55:11.265Z,99.90
2019-03-06T19:57:57.493Z,99.90
2019-03-06T20:00:29.207Z,99.90
2019-03-06T20:02:57.922Z,99.90
2019-03-06T20:05:31.059Z,99.90
2019-03-06T20:08:01.578Z,99.90
2019-03-06T20:10:30.704Z,99.90
2019-03-06T20:12:59.846Z,99.90
2019-03-06T20:15:28.970Z,99.90
2019-03-06T20:17:57.996Z,99.90
2019-03-06T20:20:27.167Z,99.90
2019-03-06T20:22:56.542Z,99.90
2019-03-06T20:25:25.671Z,99.90
2019-03-06T20:27:55.055Z,99.90
2019-03-06T20:30:24.362Z,99.90
2019-03-06T20:32:53.502Z,99.90
2019-03-06T20:35:23.121Z,99.90
2019-03-06T20:37:52.227Z,99.90
2019-03-06T20:40:21.450Z,99.90
2019-03-06T20:42:50.497Z,99.90
2019-03-06T20:45:19.555Z,99.90
2019-03-06T20:47:48.652Z,99.90
2019-03-06T20:50:17.698Z,99.90
2019-03-06T20:52:46.826Z,99.90
2019-03-06T20:55:16.306Z,99.90
2019-03-06T20:57:45.311Z,99.90
2019-03-06T21:00:16.029Z,99.90
2019-03-06T21:02:45.141Z,99.90
2019-03-06T21:05:14.229Z,99.90
2019-03-06T21:07:45.382Z,99.90
2019-03-06T21:10:15.023Z,99.90
2019-03-06T21:12:44.116Z,99.90
2019-03-06T21:15:14.692Z,99.90
2019-03-06T21:17:44.240Z,99.90
2019-03-06T21:20:15.082Z,99.90
2019-03-06T21:22:44.047Z,99.90
2019-03-06T21:25:14.433Z,99.90
2019-03-06T21:27:43.466Z,99.90
2019-03-06T21:30:32.210Z,99.90
2019-03-06T21:33:01.325Z,99.90
2019-03-06T21:35:30.455Z,99.90
2019-03-06T21:37:59.619Z,99.90
2019-03-06T21:40:28.968Z,99.90
2019-03-06T21:43:00.256Z,99.90
2019-03-06T21:45:28.879Z,99.90
2019-03-06T21:47:57.955Z,99.90
2019-03-06T21:50:27.081Z,99.90
2019-03-06T21:52:56.104Z,99.90
2019-03-06T21:55:25.076Z,99.90
2019-03-06T21:57:54.108Z,99.90
2019-03-06T22:00:23.093Z,99.90
2019-03-06T22:02:52.151Z,99.90
2019-03-06T22:05:21.229Z,99.90
2019-03-06T22:07:51.110Z,99.90
2019-03-06T22:10:20.487Z,99.90
2019-03-06T22:12:49.891Z,99.90
2019-03-06T22:15:18.866Z,99.90
2019-03-06T22:17:47.817Z,99.90
2019-03-06T22:20:16.843Z,99.90
2019-03-06T22:22:46.196Z,99.90
2019-03-06T22:25:15.621Z,99.90
2019-03-06T22:27:44.668Z,99.90
2019-03-06T22:30:17.684Z,99.90
2019-03-06T22:32:46.749Z,99.90
2019-03-06T22:35:15.806Z,99.90
2019-03-06T22:37:44.838Z,99.90
2019-03-06T22:40:14.675Z,99.90
2019-03-06T22:42:43.721Z,99.90
2019-03-06T22:45:13.504Z,99.90
2019-03-06T22:47:42.518Z,99.90
2019-03-06T22:50:12.755Z,99.90
2019-03-06T22:52:41.650Z,99.90
2019-03-06T22:55:13.548Z,99.90
2019-03-06T22:57:42.608Z,99.90
2019-03-06T23:00:43.336Z,99.90
2019-03-06T23:03:13.124Z,99.90
2019-03-06T23:05:42.118Z,99.90
2019-03-06T23:08:11.067Z,99.90
2019-03-06T23:10:40.033Z,99.90
2019-03-06T23:13:09.091Z,99.90
2019-03-06T23:15:38.131Z,99.90
2019-03-06T23:18:07.100Z,99.90
2019-03-06T23:20:36.164Z,99.90
2019-03-06T23:23:04.992Z,99.90
2019-03-06T23:25:33.862Z,99.90
2019-03-06T23:28:02.806Z,99.90
2019-03-06T23:30:31.995Z,99.90
2019-03-06T23:33:01.005Z,99.90
2019-03-06T23:35:30.045Z,99.90
2019-03-06T23:37:58.992Z,99.90
2019-03-06T23:40:28.085Z,99.90
2019-03-06T23:42:57.139Z,99.90
2019-03-06T23:45:26.294Z,99.90
2019-03-06T23:47:55.369Z,99.90
2019-03-06T23:50:24.431Z,99.90
2019-03-06T23:53:13.084Z,99.90
2019-03-06T23:55:42.128Z,99.90
2019-03-06T23:58:11.104Z,99.90
